sensor_id;sensor_type;location;lat;lon;timestamp;P1;durP1;ratioP1;P2;durP2;ratioP2
35689;SDS011;26977;44.830;-0.674;2022-09-09T00:09:47;17.35;;;4.45;;
35689;SDS011;26977;44.830;-0.674;2022-09-09T00:15:14;11.80;;;3.65;;
35689;SDS011;26977;44.830;-0.674;2022-09-09T00:23:09;19.42;;;4.50;;
35689;SDS011;26977;44.830;-0.674;2022-09-09T00:28:19;15.38;;;3.95;;
35689;SDS011;26977;44.830;-0.674;2022-09-09T00:30:48;16.35;;;3.70;;
35689;SDS011;26977;44.830;-0.674;2022-09-09T00:33:14;19.15;;;4.18;;
35689;SDS011;26977;44.830;-0.674;2022-09-09T00:35:49;15.57;;;4.07;;
35689;SDS011;26977;44.830;-0.674;2022-09-09T00:38:23;16.17;;;3.65;;
35689;SDS011;26977;44.830;-0.674;2022-09-09T00:41:11;20.35;;;4.22;;
35689;SDS011;26977;44.830;-0.674;2022-09-09T01:02:28;19.42;;;5.53;;
35689;SDS011;26977;44.830;-0.674;2022-09-09T01:05:01;18.38;;;4.00;;
35689;SDS011;26977;44.830;-0.674;2022-09-09T01:07:37;16.63;;;4.40;;
35689;SDS011;26977;44.830;-0.674;2022-09-09T01:10:04;16.00;;;4.68;;
35689;SDS011;26977;44.830;-0.674;2022-09-09T01:12:40;17.98;;;5.07;;
35689;SDS011;26977;44.830;-0.674;2022-09-09T01:28:39;13.57;;;3.38;;
35689;SDS011;26977;44.830;-0.674;2022-09-09T01:31:07;17.73;;;4.68;;
35689;SDS011;26977;44.830;-0.674;2022-09-09T01:33:36;22.38;;;4.63;;
35689;SDS011;26977;44.830;-0.674;2022-09-09T01:36:04;23.48;;;4.30;;
35689;SDS011;26977;44.830;-0.674;2022-09-09T01:38:37;21.15;;;4.32;;
35689;SDS011;26977;44.830;-0.674;2022-09-09T01:41:03;18.83;;;3.60;;
35689;SDS011;26977;44.830;-0.674;2022-09-09T01:43:29;19.30;;;3.85;;
35689;SDS011;26977;44.830;-0.674;2022-09-09T01:45:56;14.23;;;4.05;;
35689;SDS011;26977;44.830;-0.674;2022-09-09T01:48:25;13.85;;;3.22;;
35689;SDS011;26977;44.830;-0.674;2022-09-09T01:50:52;24.17;;;3.60;;
35689;SDS011;26977;44.830;-0.674;2022-09-09T01:53:18;14.35;;;3.40;;
35689;SDS011;26977;44.830;-0.674;2022-09-09T01:56:02;16.63;;;3.47;;
35689;SDS011;26977;44.830;-0.674;2022-09-09T01:58:32;18.77;;;4.00;;
35689;SDS011;26977;44.830;-0.674;2022-09-09T02:03:45;20.73;;;3.25;;
35689;SDS011;26977;44.830;-0.674;2022-09-09T02:06:27;16.10;;;3.47;;
35689;SDS011;26977;44.830;-0.674;2022-09-09T02:09:00;12.20;;;2.85;;
35689;SDS011;26977;44.830;-0.674;2022-09-09T02:11:29;10.18;;;2.85;;
35689;SDS011;26977;44.830;-0.674;2022-09-09T02:14:03;15.23;;;3.50;;
35689;SDS011;26977;44.830;-0.674;2022-09-09T02:16:53;15.98;;;4.15;;
35689;SDS011;26977;44.830;-0.674;2022-09-09T02:19:29;13.38;;;3.50;;
35689;SDS011;26977;44.830;-0.674;2022-09-09T02:21:59;14.45;;;3.70;;
35689;SDS011;26977;44.830;-0.674;2022-09-09T02:24:27;14.60;;;3.78;;
35689;SDS011;26977;44.830;-0.674;2022-09-09T02:26:55;16.63;;;4.47;;
35689;SDS011;26977;44.830;-0.674;2022-09-09T02:29:23;18.05;;;4.68;;
35689;SDS011;26977;44.830;-0.674;2022-09-09T02:31:53;15.00;;;4.22;;
35689;SDS011;26977;44.830;-0.674;2022-09-09T02:34:23;16.60;;;3.55;;
35689;SDS011;26977;44.830;-0.674;2022-09-09T02:36:52;17.95;;;3.53;;
35689;SDS011;26977;44.830;-0.674;2022-09-09T02:39:20;15.32;;;3.47;;
35689;SDS011;26977;44.830;-0.674;2022-09-09T02:41:45;14.63;;;3.67;;
35689;SDS011;26977;44.830;-0.674;2022-09-09T02:44:13;13.48;;;3.53;;
35689;SDS011;26977;44.830;-0.674;2022-09-09T02:50:05;11.75;;;3.30;;
35689;SDS011;26977;44.830;-0.674;2022-09-09T02:55:12;16.15;;;3.55;;
35689;SDS011;26977;44.830;-0.674;2022-09-09T02:57:53;14.45;;;2.92;;
35689;SDS011;26977;44.830;-0.674;2022-09-09T03:00:24;15.93;;;3.45;;
35689;SDS011;26977;44.830;-0.674;2022-09-09T03:02:52;19.33;;;3.40;;
35689;SDS011;26977;44.830;-0.674;2022-09-09T03:05:19;17.40;;;2.95;;
35689;SDS011;26977;44.830;-0.674;2022-09-09T03:07:45;11.43;;;2.70;;
35689;SDS011;26977;44.830;-0.674;2022-09-09T03:10:11;15.68;;;3.55;;
35689;SDS011;26977;44.830;-0.674;2022-09-09T03:12:37;12.13;;;2.78;;
35689;SDS011;26977;44.830;-0.674;2022-09-09T03:15:03;15.20;;;2.40;;
35689;SDS011;26977;44.830;-0.674;2022-09-09T03:17:32;15.25;;;2.40;;
35689;SDS011;26977;44.830;-0.674;2022-09-09T03:19:58;14.82;;;2.75;;
35689;SDS011;26977;44.830;-0.674;2022-09-09T03:22:24;17.00;;;2.75;;
35689;SDS011;26977;44.830;-0.674;2022-09-09T03:24:50;12.98;;;2.67;;
35689;SDS011;26977;44.830;-0.674;2022-09-09T03:27:17;12.02;;;2.17;;
35689;SDS011;26977;44.830;-0.674;2022-09-09T03:29:44;12.20;;;2.22;;
35689;SDS011;26977;44.830;-0.674;2022-09-09T03:32:10;12.00;;;2.30;;
35689;SDS011;26977;44.830;-0.674;2022-09-09T03:34:36;20.40;;;2.40;;
35689;SDS011;26977;44.830;-0.674;2022-09-09T03:37:05;15.25;;;2.13;;
35689;SDS011;26977;44.830;-0.674;2022-09-09T03:39:31;15.40;;;2.35;;
35689;SDS011;26977;44.830;-0.674;2022-09-09T03:41:56;13.57;;;2.05;;
35689;SDS011;26977;44.830;-0.674;2022-09-09T03:44:22;12.85;;;2.22;;
35689;SDS011;26977;44.830;-0.674;2022-09-09T03:46:48;14.32;;;2.40;;
35689;SDS011;26977;44.830;-0.674;2022-09-09T03:49:13;12.85;;;2.50;;
35689;SDS011;26977;44.830;-0.674;2022-09-09T03:51:40;17.42;;;2.80;;
35689;SDS011;26977;44.830;-0.674;2022-09-09T03:54:06;12.15;;;1.85;;
35689;SDS011;26977;44.830;-0.674;2022-09-09T03:56:35;15.60;;;2.50;;
35689;SDS011;26977;44.830;-0.674;2022-09-09T03:59:01;18.30;;;2.20;;
35689;SDS011;26977;44.830;-0.674;2022-09-09T04:01:27;12.27;;;2.33;;
35689;SDS011;26977;44.830;-0.674;2022-09-09T04:03:53;12.77;;;2.28;;
35689;SDS011;26977;44.830;-0.674;2022-09-09T04:06:22;12.15;;;2.42;;
35689;SDS011;26977;44.830;-0.674;2022-09-09T04:08:48;12.27;;;2.45;;
35689;SDS011;26977;44.830;-0.674;2022-09-09T04:11:14;10.93;;;2.22;;
35689;SDS011;26977;44.830;-0.674;2022-09-09T04:13:40;15.15;;;2.28;;
35689;SDS011;26977;44.830;-0.674;2022-09-09T04:16:07;14.75;;;2.67;;
35689;SDS011;26977;44.830;-0.674;2022-09-09T04:18:35;17.05;;;2.97;;
35689;SDS011;26977;44.830;-0.674;2022-09-09T04:21:01;18.45;;;2.85;;
35689;SDS011;26977;44.830;-0.674;2022-09-09T04:23:28;13.00;;;2.25;;
35689;SDS011;26977;44.830;-0.674;2022-09-09T04:25:54;12.25;;;2.10;;
35689;SDS011;26977;44.830;-0.674;2022-09-09T04:28:23;19.90;;;2.90;;
35689;SDS011;26977;44.830;-0.674;2022-09-09T04:30:50;12.07;;;2.67;;
35689;SDS011;26977;44.830;-0.674;2022-09-09T04:33:17;11.13;;;2.13;;
35689;SDS011;26977;44.830;-0.674;2022-09-09T04:35:48;17.23;;;3.00;;
35689;SDS011;26977;44.830;-0.674;2022-09-09T04:38:15;13.02;;;2.03;;
35689;SDS011;26977;44.830;-0.674;2022-09-09T04:40:43;10.15;;;2.30;;
35689;SDS011;26977;44.830;-0.674;2022-09-09T04:43:12;20.00;;;2.45;;
35689;SDS011;26977;44.830;-0.674;2022-09-09T04:45:39;14.27;;;2.30;;
35689;SDS011;26977;44.830;-0.674;2022-09-09T04:48:05;17.58;;;2.75;;
35689;SDS011;26977;44.830;-0.674;2022-09-09T04:50:31;20.27;;;3.00;;
35689;SDS011;26977;44.830;-0.674;2022-09-09T04:52:59;18.88;;;3.33;;
35689;SDS011;26977;44.830;-0.674;2022-09-09T04:55:29;17.55;;;3.17;;
35689;SDS011;26977;44.830;-0.674;2022-09-09T04:57:56;16.52;;;2.78;;
35689;SDS011;26977;44.830;-0.674;2022-09-09T05:00:22;20.50;;;3.35;;
35689;SDS011;26977;44.830;-0.674;2022-09-09T05:02:49;11.38;;;2.95;;
35689;SDS011;26977;44.830;-0.674;2022-09-09T05:05:15;15.20;;;3.58;;
35689;SDS011;26977;44.830;-0.674;2022-09-09T05:07:41;19.02;;;3.70;;
35689;SDS011;26977;44.830;-0.674;2022-09-09T05:10:08;20.10;;;4.20;;
35689;SDS011;26977;44.830;-0.674;2022-09-09T05:12:35;18.60;;;3.60;;
35689;SDS011;26977;44.830;-0.674;2022-09-09T05:15:01;14.20;;;3.22;;
35689;SDS011;26977;44.830;-0.674;2022-09-09T05:17:26;19.70;;;3.08;;
35689;SDS011;26977;44.830;-0.674;2022-09-09T05:19:52;16.58;;;3.00;;
35689;SDS011;26977;44.830;-0.674;2022-09-09T05:22:19;12.90;;;3.42;;
35689;SDS011;26977;44.830;-0.674;2022-09-09T05:24:46;11.23;;;3.00;;
35689;SDS011;26977;44.830;-0.674;2022-09-09T05:27:12;20.63;;;3.85;;
35689;SDS011;26977;44.830;-0.674;2022-09-09T05:29:38;22.05;;;3.70;;
35689;SDS011;26977;44.830;-0.674;2022-09-09T05:32:04;14.32;;;2.88;;
35689;SDS011;26977;44.830;-0.674;2022-09-09T05:34:30;21.73;;;3.92;;
35689;SDS011;26977;44.830;-0.674;2022-09-09T05:36:55;13.20;;;3.35;;
35689;SDS011;26977;44.830;-0.674;2022-09-09T05:39:21;14.85;;;3.10;;
35689;SDS011;26977;44.830;-0.674;2022-09-09T05:41:47;20.05;;;3.22;;
35689;SDS011;26977;44.830;-0.674;2022-09-09T05:44:12;22.50;;;3.60;;
35689;SDS011;26977;44.830;-0.674;2022-09-09T05:46:38;12.35;;;3.10;;
35689;SDS011;26977;44.830;-0.674;2022-09-09T05:49:04;12.95;;;3.00;;
35689;SDS011;26977;44.830;-0.674;2022-09-09T05:51:31;21.80;;;5.30;;
35689;SDS011;26977;44.830;-0.674;2022-09-09T05:53:56;16.20;;;3.45;;
35689;SDS011;26977;44.830;-0.674;2022-09-09T05:56:26;17.10;;;3.28;;
35689;SDS011;26977;44.830;-0.674;2022-09-09T05:58:53;12.85;;;2.47;;
35689;SDS011;26977;44.830;-0.674;2022-09-09T06:01:22;13.13;;;2.55;;
35689;SDS011;26977;44.830;-0.674;2022-09-09T06:03:52;12.68;;;3.05;;
35689;SDS011;26977;44.830;-0.674;2022-09-09T06:06:31;12.82;;;3.00;;
35689;SDS011;26977;44.830;-0.674;2022-09-09T06:09:01;17.65;;;3.38;;
35689;SDS011;26977;44.830;-0.674;2022-09-09T06:11:28;20.30;;;3.03;;
35689;SDS011;26977;44.830;-0.674;2022-09-09T06:13:59;17.13;;;2.53;;
35689;SDS011;26977;44.830;-0.674;2022-09-09T06:16:26;17.85;;;3.05;;
35689;SDS011;26977;44.830;-0.674;2022-09-09T06:18:53;10.65;;;2.38;;
35689;SDS011;26977;44.830;-0.674;2022-09-09T06:21:23;12.10;;;2.00;;
35689;SDS011;26977;44.830;-0.674;2022-09-09T06:23:50;12.65;;;2.80;;
35689;SDS011;26977;44.830;-0.674;2022-09-09T06:26:19;12.90;;;2.65;;
35689;SDS011;26977;44.830;-0.674;2022-09-09T06:28:48;18.08;;;2.83;;
35689;SDS011;26977;44.830;-0.674;2022-09-09T06:31:16;15.05;;;2.50;;
35689;SDS011;26977;44.830;-0.674;2022-09-09T06:33:42;16.30;;;2.95;;
35689;SDS011;26977;44.830;-0.674;2022-09-09T06:36:11;12.55;;;2.30;;
35689;SDS011;26977;44.830;-0.674;2022-09-09T06:38:38;19.90;;;3.05;;
35689;SDS011;26977;44.830;-0.674;2022-09-09T06:41:04;16.05;;;5.72;;
35689;SDS011;26977;44.830;-0.674;2022-09-09T06:43:30;11.57;;;2.50;;
35689;SDS011;26977;44.830;-0.674;2022-09-09T06:45:58;11.77;;;2.17;;
35689;SDS011;26977;44.830;-0.674;2022-09-09T06:48:25;16.70;;;2.53;;
35689;SDS011;26977;44.830;-0.674;2022-09-09T06:51:01;11.75;;;2.28;;
35689;SDS011;26977;44.830;-0.674;2022-09-09T06:53:35;12.65;;;2.35;;
35689;SDS011;26977;44.830;-0.674;2022-09-09T06:58:39;12.10;;;2.55;;
35689;SDS011;26977;44.830;-0.674;2022-09-09T07:01:09;16.20;;;2.55;;
35689;SDS011;26977;44.830;-0.674;2022-09-09T07:03:39;9.25;;;1.80;;
35689;SDS011;26977;44.830;-0.674;2022-09-09T07:06:06;14.85;;;2.03;;
35689;SDS011;26977;44.830;-0.674;2022-09-09T07:08:34;14.93;;;2.70;;
35689;SDS011;26977;44.830;-0.674;2022-09-09T07:11:03;11.48;;;2.85;;
35689;SDS011;26977;44.830;-0.674;2022-09-09T07:13:31;15.07;;;2.13;;
35689;SDS011;26977;44.830;-0.674;2022-09-09T07:16:30;11.13;;;1.70;;
35689;SDS011;26977;44.830;-0.674;2022-09-09T07:18:49;13.63;;;2.67;;
35689;SDS011;26977;44.830;-0.674;2022-09-09T07:21:16;14.35;;;2.60;;
35689;SDS011;26977;44.830;-0.674;2022-09-09T07:23:42;13.10;;;2.50;;
35689;SDS011;26977;44.830;-0.674;2022-09-09T07:26:09;10.80;;;1.98;;
35689;SDS011;26977;44.830;-0.674;2022-09-09T07:28:35;12.70;;;1.77;;
35689;SDS011;26977;44.830;-0.674;2022-09-09T07:31:02;15.23;;;1.95;;
35689;SDS011;26977;44.830;-0.674;2022-09-09T07:33:28;13.93;;;1.98;;
35689;SDS011;26977;44.830;-0.674;2022-09-09T07:38:49;11.25;;;1.88;;
35689;SDS011;26977;44.830;-0.674;2022-09-09T07:41:24;11.07;;;2.22;;
35689;SDS011;26977;44.830;-0.674;2022-09-09T07:43:51;12.80;;;1.75;;
35689;SDS011;26977;44.830;-0.674;2022-09-09T07:46:19;13.55;;;1.92;;
35689;SDS011;26977;44.830;-0.674;2022-09-09T07:48:47;10.18;;;1.80;;
35689;SDS011;26977;44.830;-0.674;2022-09-09T07:51:18;15.40;;;2.25;;
35689;SDS011;26977;44.830;-0.674;2022-09-09T07:53:46;15.70;;;2.38;;
35689;SDS011;26977;44.830;-0.674;2022-09-09T07:56:14;12.45;;;1.80;;
35689;SDS011;26977;44.830;-0.674;2022-09-09T07:58:42;14.00;;;2.05;;
35689;SDS011;26977;44.830;-0.674;2022-09-09T08:01:11;12.52;;;1.77;;
35689;SDS011;26977;44.830;-0.674;2022-09-09T08:03:42;13.88;;;2.00;;
35689;SDS011;26977;44.830;-0.674;2022-09-09T08:06:10;12.30;;;2.30;;
35689;SDS011;26977;44.830;-0.674;2022-09-09T08:08:38;9.27;;;1.75;;
35689;SDS011;26977;44.830;-0.674;2022-09-09T08:11:05;10.82;;;1.88;;
35689;SDS011;26977;44.830;-0.674;2022-09-09T08:13:35;13.88;;;2.10;;
35689;SDS011;26977;44.830;-0.674;2022-09-09T08:16:21;14.27;;;1.40;;
35689;SDS011;26977;44.830;-0.674;2022-09-09T08:18:49;9.25;;;2.38;;
35689;SDS011;26977;44.830;-0.674;2022-09-09T08:21:20;12.02;;;1.58;;
35689;SDS011;26977;44.830;-0.674;2022-09-09T08:23:49;8.95;;;1.70;;
35689;SDS011;26977;44.830;-0.674;2022-09-09T08:26:20;11.98;;;1.83;;
35689;SDS011;26977;44.830;-0.674;2022-09-09T08:28:52;11.77;;;1.27;;
35689;SDS011;26977;44.830;-0.674;2022-09-09T08:31:20;9.43;;;1.92;;
35689;SDS011;26977;44.830;-0.674;2022-09-09T08:33:48;10.35;;;1.85;;
35689;SDS011;26977;44.830;-0.674;2022-09-09T08:36:14;10.23;;;1.65;;
35689;SDS011;26977;44.830;-0.674;2022-09-09T08:38:42;8.85;;;2.17;;
35689;SDS011;26977;44.830;-0.674;2022-09-09T08:43:46;13.93;;;1.70;;
35689;SDS011;26977;44.830;-0.674;2022-09-09T08:48:58;10.55;;;2.05;;
35689;SDS011;26977;44.830;-0.674;2022-09-09T08:51:29;12.90;;;1.80;;
35689;SDS011;26977;44.830;-0.674;2022-09-09T08:53:58;10.32;;;1.63;;
35689;SDS011;26977;44.830;-0.674;2022-09-09T08:56:27;7.55;;;1.15;;
35689;SDS011;26977;44.830;-0.674;2022-09-09T08:58:56;12.25;;;1.83;;
35689;SDS011;26977;44.830;-0.674;2022-09-09T09:13:18;9.73;;;1.90;;
35689;SDS011;26977;44.830;-0.674;2022-09-09T09:15:53;9.02;;;1.75;;
35689;SDS011;26977;44.830;-0.674;2022-09-09T09:18:23;17.02;;;2.03;;
35689;SDS011;26977;44.830;-0.674;2022-09-09T09:20:56;14.23;;;1.63;;
35689;SDS011;26977;44.830;-0.674;2022-09-09T09:23:56;11.02;;;1.83;;
35689;SDS011;26977;44.830;-0.674;2022-09-09T09:26:25;9.80;;;1.60;;
35689;SDS011;26977;44.830;-0.674;2022-09-09T09:28:59;9.18;;;1.30;;
35689;SDS011;26977;44.830;-0.674;2022-09-09T09:31:33;7.07;;;1.30;;
35689;SDS011;26977;44.830;-0.674;2022-09-09T09:33:58;7.85;;;1.55;;
35689;SDS011;26977;44.830;-0.674;2022-09-09T09:36:35;12.10;;;1.65;;
35689;SDS011;26977;44.830;-0.674;2022-09-09T09:39:09;20.05;;;2.60;;
35689;SDS011;26977;44.830;-0.674;2022-09-09T09:41:36;24.13;;;3.92;;
35689;SDS011;26977;44.830;-0.674;2022-09-09T09:44:05;24.27;;;3.38;;
35689;SDS011;26977;44.830;-0.674;2022-09-09T09:46:46;15.40;;;3.13;;
35689;SDS011;26977;44.830;-0.674;2022-09-09T09:49:12;22.02;;;3.05;;
35689;SDS011;26977;44.830;-0.674;2022-09-09T09:51:38;29.00;;;3.47;;
35689;SDS011;26977;44.830;-0.674;2022-09-09T09:54:09;21.15;;;3.40;;
35689;SDS011;26977;44.830;-0.674;2022-09-09T09:56:40;18.65;;;3.08;;
35689;SDS011;26977;44.830;-0.674;2022-09-09T09:59:19;20.38;;;2.50;;
35689;SDS011;26977;44.830;-0.674;2022-09-09T10:02:06;16.25;;;2.25;;
35689;SDS011;26977;44.830;-0.674;2022-09-09T10:04:37;15.82;;;2.53;;
35689;SDS011;26977;44.830;-0.674;2022-09-09T10:07:13;25.75;;;3.25;;
35689;SDS011;26977;44.830;-0.674;2022-09-09T10:09:46;10.85;;;2.05;;
35689;SDS011;26977;44.830;-0.674;2022-09-09T10:22:45;19.02;;;3.10;;
35689;SDS011;26977;44.830;-0.674;2022-09-09T10:30:51;16.85;;;3.10;;
35689;SDS011;26977;44.830;-0.674;2022-09-09T10:34:04;13.82;;;2.58;;
35689;SDS011;26977;44.830;-0.674;2022-09-09T10:36:38;17.85;;;2.90;;
35689;SDS011;26977;44.830;-0.674;2022-09-09T10:42:07;10.23;;;1.80;;
35689;SDS011;26977;44.830;-0.674;2022-09-09T10:45:30;23.52;;;3.22;;
35689;SDS011;26977;44.830;-0.674;2022-09-09T10:56:28;11.40;;;2.10;;
35689;SDS011;26977;44.830;-0.674;2022-09-09T11:01:44;12.95;;;2.42;;
35689;SDS011;26977;44.830;-0.674;2022-09-09T11:04:30;12.18;;;2.30;;
35689;SDS011;26977;44.830;-0.674;2022-09-09T11:07:00;14.15;;;2.10;;
35689;SDS011;26977;44.830;-0.674;2022-09-09T11:09:33;8.60;;;1.65;;
35689;SDS011;26977;44.830;-0.674;2022-09-09T11:12:09;5.30;;;1.42;;
35689;SDS011;26977;44.830;-0.674;2022-09-09T11:14:44;9.70;;;1.58;;
35689;SDS011;26977;44.830;-0.674;2022-09-09T11:17:31;4.65;;;1.50;;
35689;SDS011;26977;44.830;-0.674;2022-09-09T11:20:04;9.48;;;1.42;;
35689;SDS011;26977;44.830;-0.674;2022-09-09T11:22:32;10.13;;;1.25;;
35689;SDS011;26977;44.830;-0.674;2022-09-09T11:33:33;8.13;;;1.33;;
35689;SDS011;26977;44.830;-0.674;2022-09-09T11:41:46;6.68;;;1.00;;
35689;SDS011;26977;44.830;-0.674;2022-09-09T11:44:13;7.47;;;1.13;;
35689;SDS011;26977;44.830;-0.674;2022-09-09T11:46:46;7.97;;;1.13;;
35689;SDS011;26977;44.830;-0.674;2022-09-09T11:49:48;6.45;;;1.27;;
35689;SDS011;26977;44.830;-0.674;2022-09-09T11:54:51;5.15;;;1.13;;
35689;SDS011;26977;44.830;-0.674;2022-09-09T11:57:25;7.85;;;1.45;;
35689;SDS011;26977;44.830;-0.674;2022-09-09T11:59:58;5.80;;;0.98;;
35689;SDS011;26977;44.830;-0.674;2022-09-09T12:02:25;8.00;;;1.10;;
35689;SDS011;26977;44.830;-0.674;2022-09-09T12:15:16;9.73;;;1.90;;
35689;SDS011;26977;44.830;-0.674;2022-09-09T12:28:22;11.05;;;1.40;;
35689;SDS011;26977;44.830;-0.674;2022-09-09T12:31:10;7.68;;;0.95;;
35689;SDS011;26977;44.830;-0.674;2022-09-09T12:33:49;7.38;;;1.17;;
35689;SDS011;26977;44.830;-0.674;2022-09-09T12:36:52;9.40;;;1.60;;
35689;SDS011;26977;44.830;-0.674;2022-09-09T12:39:17;8.50;;;1.17;;
35689;SDS011;26977;44.830;-0.674;2022-09-09T12:41:51;9.73;;;1.23;;
35689;SDS011;26977;44.830;-0.674;2022-09-09T12:44:21;5.57;;;0.85;;
35689;SDS011;26977;44.830;-0.674;2022-09-09T12:46:48;9.63;;;1.20;;
35689;SDS011;26977;44.830;-0.674;2022-09-09T12:49:48;7.38;;;0.90;;
35689;SDS011;26977;44.830;-0.674;2022-09-09T12:52:11;5.05;;;0.90;;
35689;SDS011;26977;44.830;-0.674;2022-09-09T12:54:45;6.15;;;1.08;;
35689;SDS011;26977;44.830;-0.674;2022-09-09T12:57:12;5.20;;;1.27;;
35689;SDS011;26977;44.830;-0.674;2022-09-09T12:59:40;6.53;;;0.98;;
35689;SDS011;26977;44.830;-0.674;2022-09-09T13:02:21;12.63;;;1.98;;
35689;SDS011;26977;44.830;-0.674;2022-09-09T13:04:48;9.60;;;1.52;;
35689;SDS011;26977;44.830;-0.674;2022-09-09T13:07:15;4.85;;;1.05;;
35689;SDS011;26977;44.830;-0.674;2022-09-09T13:09:42;6.65;;;1.30;;
35689;SDS011;26977;44.830;-0.674;2022-09-09T13:12:18;5.60;;;0.98;;
35689;SDS011;26977;44.830;-0.674;2022-09-09T13:14:47;5.85;;;1.02;;
35689;SDS011;26977;44.830;-0.674;2022-09-09T13:17:20;6.90;;;1.40;;
35689;SDS011;26977;44.830;-0.674;2022-09-09T13:19:51;5.90;;;1.50;;
35689;SDS011;26977;44.830;-0.674;2022-09-09T13:24:58;5.88;;;1.55;;
35689;SDS011;26977;44.830;-0.674;2022-09-09T13:27:51;6.63;;;1.10;;
35689;SDS011;26977;44.830;-0.674;2022-09-09T13:35:28;8.30;;;0.80;;
35689;SDS011;26977;44.830;-0.674;2022-09-09T13:37:54;5.90;;;0.90;;
35689;SDS011;26977;44.830;-0.674;2022-09-09T13:40:21;7.50;;;0.90;;
35689;SDS011;26977;44.830;-0.674;2022-09-09T13:42:50;6.20;;;1.17;;
35689;SDS011;26977;44.830;-0.674;2022-09-09T13:45:19;6.60;;;1.08;;
35689;SDS011;26977;44.830;-0.674;2022-09-09T13:47:52;3.65;;;0.98;;
35689;SDS011;26977;44.830;-0.674;2022-09-09T13:50:27;4.63;;;1.08;;
35689;SDS011;26977;44.830;-0.674;2022-09-09T13:52:57;9.02;;;1.33;;
35689;SDS011;26977;44.830;-0.674;2022-09-09T13:55:25;5.22;;;0.85;;
35689;SDS011;26977;44.830;-0.674;2022-09-09T13:58:01;3.88;;;0.80;;
35689;SDS011;26977;44.830;-0.674;2022-09-09T14:00:33;6.68;;;1.23;;
35689;SDS011;26977;44.830;-0.674;2022-09-09T14:02:59;5.85;;;1.15;;
35689;SDS011;26977;44.830;-0.674;2022-09-09T14:05:29;4.70;;;1.50;;
35689;SDS011;26977;44.830;-0.674;2022-09-09T14:07:57;3.72;;;0.70;;
35689;SDS011;26977;44.830;-0.674;2022-09-09T14:10:25;6.65;;;1.02;;
35689;SDS011;26977;44.830;-0.674;2022-09-09T14:12:51;7.28;;;1.20;;
35689;SDS011;26977;44.830;-0.674;2022-09-09T14:15:17;4.72;;;0.77;;
35689;SDS011;26977;44.830;-0.674;2022-09-09T14:17:44;4.68;;;1.00;;
35689;SDS011;26977;44.830;-0.674;2022-09-09T14:20:09;8.15;;;1.40;;
35689;SDS011;26977;44.830;-0.674;2022-09-09T14:22:36;7.85;;;1.08;;
35689;SDS011;26977;44.830;-0.674;2022-09-09T14:25:04;5.88;;;1.20;;
35689;SDS011;26977;44.830;-0.674;2022-09-09T14:27:31;4.65;;;0.90;;
35689;SDS011;26977;44.830;-0.674;2022-09-09T14:29:57;3.40;;;1.10;;
35689;SDS011;26977;44.830;-0.674;2022-09-09T14:32:24;5.45;;;1.17;;
35689;SDS011;26977;44.830;-0.674;2022-09-09T14:34:50;5.57;;;1.20;;
35689;SDS011;26977;44.830;-0.674;2022-09-09T14:37:16;4.18;;;1.10;;
35689;SDS011;26977;44.830;-0.674;2022-09-09T14:39:42;6.80;;;1.10;;
35689;SDS011;26977;44.830;-0.674;2022-09-09T14:42:12;4.63;;;1.23;;
35689;SDS011;26977;44.830;-0.674;2022-09-09T14:44:38;4.80;;;0.90;;
35689;SDS011;26977;44.830;-0.674;2022-09-09T14:47:05;7.95;;;1.20;;
35689;SDS011;26977;44.830;-0.674;2022-09-09T14:49:33;5.43;;;1.15;;
35689;SDS011;26977;44.830;-0.674;2022-09-09T14:51:59;9.40;;;1.00;;
35689;SDS011;26977;44.830;-0.674;2022-09-09T14:54:25;5.13;;;1.00;;
35689;SDS011;26977;44.830;-0.674;2022-09-09T14:56:51;9.57;;;1.10;;
35689;SDS011;26977;44.830;-0.674;2022-09-09T14:59:16;5.50;;;1.00;;
35689;SDS011;26977;44.830;-0.674;2022-09-09T15:01:42;4.80;;;0.68;;
35689;SDS011;26977;44.830;-0.674;2022-09-09T15:04:10;4.53;;;0.98;;
35689;SDS011;26977;44.830;-0.674;2022-09-09T15:06:39;5.32;;;0.75;;
35689;SDS011;26977;44.830;-0.674;2022-09-09T15:09:07;4.55;;;1.00;;
35689;SDS011;26977;44.830;-0.674;2022-09-09T15:11:34;3.97;;;1.00;;
35689;SDS011;26977;44.830;-0.674;2022-09-09T15:14:04;9.20;;;1.05;;
35689;SDS011;26977;44.830;-0.674;2022-09-09T15:16:31;5.18;;;0.80;;
35689;SDS011;26977;44.830;-0.674;2022-09-09T15:18:58;5.25;;;0.80;;
35689;SDS011;26977;44.830;-0.674;2022-09-09T15:21:28;3.88;;;0.82;;
35689;SDS011;26977;44.830;-0.674;2022-09-09T15:23:56;3.92;;;0.90;;
35689;SDS011;26977;44.830;-0.674;2022-09-09T15:26:22;7.25;;;1.02;;
35689;SDS011;26977;44.830;-0.674;2022-09-09T15:28:48;5.70;;;1.02;;
35689;SDS011;26977;44.830;-0.674;2022-09-09T15:33:49;6.10;;;1.23;;
35689;SDS011;26977;44.830;-0.674;2022-09-09T15:36:26;9.40;;;0.82;;
35689;SDS011;26977;44.830;-0.674;2022-09-09T15:39:02;12.05;;;1.40;;
35689;SDS011;26977;44.830;-0.674;2022-09-09T15:41:29;4.63;;;0.90;;
35689;SDS011;26977;44.830;-0.674;2022-09-09T15:43:56;4.25;;;0.90;;
35689;SDS011;26977;44.830;-0.674;2022-09-09T15:48:51;5.75;;;1.05;;
35689;SDS011;26977;44.830;-0.674;2022-09-09T15:51:17;4.93;;;0.52;;
35689;SDS011;26977;44.830;-0.674;2022-09-09T15:53:43;4.75;;;0.82;;
35689;SDS011;26977;44.830;-0.674;2022-09-09T15:56:10;6.28;;;1.10;;
35689;SDS011;26977;44.830;-0.674;2022-09-09T15:58:36;4.75;;;1.00;;
35689;SDS011;26977;44.830;-0.674;2022-09-09T16:01:08;8.25;;;1.05;;
35689;SDS011;26977;44.830;-0.674;2022-09-09T16:03:42;7.68;;;1.00;;
35689;SDS011;26977;44.830;-0.674;2022-09-09T16:06:10;7.10;;;1.17;;
35689;SDS011;26977;44.830;-0.674;2022-09-09T16:08:38;5.30;;;1.42;;
35689;SDS011;26977;44.830;-0.674;2022-09-09T16:11:09;5.13;;;1.02;;
35689;SDS011;26977;44.830;-0.674;2022-09-09T16:13:40;9.60;;;1.17;;
35689;SDS011;26977;44.830;-0.674;2022-09-09T16:16:09;6.90;;;1.00;;
35689;SDS011;26977;44.830;-0.674;2022-09-09T16:18:39;3.97;;;0.90;;
35689;SDS011;26977;44.830;-0.674;2022-09-09T16:21:07;8.77;;;1.10;;
35689;SDS011;26977;44.830;-0.674;2022-09-09T16:23:36;5.75;;;1.08;;
35689;SDS011;26977;44.830;-0.674;2022-09-09T16:26:02;6.10;;;1.10;;
35689;SDS011;26977;44.830;-0.674;2022-09-09T16:28:28;10.15;;;1.10;;
35689;SDS011;26977;44.830;-0.674;2022-09-09T16:30:54;5.03;;;0.82;;
35689;SDS011;26977;44.830;-0.674;2022-09-09T16:33:20;6.45;;;1.17;;
35689;SDS011;26977;44.830;-0.674;2022-09-09T16:35:47;8.25;;;1.17;;
35689;SDS011;26977;44.830;-0.674;2022-09-09T16:38:14;7.78;;;1.20;;
35689;SDS011;26977;44.830;-0.674;2022-09-09T16:40:39;7.13;;;1.17;;
35689;SDS011;26977;44.830;-0.674;2022-09-09T16:43:06;7.55;;;1.33;;
35689;SDS011;26977;44.830;-0.674;2022-09-09T16:45:32;5.93;;;0.90;;
35689;SDS011;26977;44.830;-0.674;2022-09-09T16:47:58;5.25;;;0.70;;
35689;SDS011;26977;44.830;-0.674;2022-09-09T16:50:25;3.38;;;0.88;;
35689;SDS011;26977;44.830;-0.674;2022-09-09T16:52:52;4.68;;;0.77;;
35689;SDS011;26977;44.830;-0.674;2022-09-09T16:55:18;7.53;;;0.93;;
35689;SDS011;26977;44.830;-0.674;2022-09-09T16:57:45;4.65;;;0.77;;
35689;SDS011;26977;44.830;-0.674;2022-09-09T17:00:14;6.07;;;1.00;;
35689;SDS011;26977;44.830;-0.674;2022-09-09T17:02:42;3.40;;;1.05;;
35689;SDS011;26977;44.830;-0.674;2022-09-09T17:05:10;9.40;;;1.17;;
35689;SDS011;26977;44.830;-0.674;2022-09-09T17:07:37;7.55;;;1.35;;
35689;SDS011;26977;44.830;-0.674;2022-09-09T17:10:03;8.38;;;1.38;;
35689;SDS011;26977;44.830;-0.674;2022-09-09T17:12:30;7.10;;;1.00;;
35689;SDS011;26977;44.830;-0.674;2022-09-09T17:14:56;7.68;;;1.08;;
35689;SDS011;26977;44.830;-0.674;2022-09-09T17:17:21;4.82;;;1.10;;
35689;SDS011;26977;44.830;-0.674;2022-09-09T17:19:47;6.75;;;1.40;;
35689;SDS011;26977;44.830;-0.674;2022-09-09T17:22:15;5.18;;;0.82;;
35689;SDS011;26977;44.830;-0.674;2022-09-09T17:24:40;6.00;;;1.15;;